^^
Saratoga-Weather Station Historical Data
Daily Summary for January 26, 2022 Units:  Both    English   Metric
Daily Weekly Monthly Yearly Custom
  High: Low: Average:
Temperature: 32.7 °F /  0.4 °C 29.7 °F /  -1.3 °C 30.7 °F /  -0.7 °C
Dew Point: 30.9 °F /  -0.6 °C 28.9 °F /  -1.7 °C 29.8 °F /  -1.2 °C
Humidity: 97% 93% 96%
Wind Speed: 6.9mph /  11.1km/h - 2mph /  3.2km/h
Wind Gust: 9mph /  14.5km/h - -
Wind- - West
Pressure: 30.5 in /  1034.2 hPa 30.5 in /  1032.2 hPa -
Precipitation: 0 in /  0.0 mm    
Historical Graphs
 
 
Tabular Data for January 26, 2022
Time Temperature Dew Point Pressure Wind Wind Speed Wind Gust Humidity Rainfall Rate (Hourly) solar
00:03 30 °F /  -1.1 °C 29.3 °F /  -1.5 °C 30.5in /  1032.8hPa West 2mph /  3.2km/h 2mph /  3.2km/h 97% 0in /  0.0mm 0 W/m2
00:08 30.2 °F /  -1 °C 29.5 °F /  -1.4 °C 30.5in /  1032.8hPa West 0.9mph /  1.4km/h 3mph /  4.8km/h 97% 0in /  0.0mm 0 W/m2
00:13 30.2 °F /  -1 °C 29.5 °F /  -1.4 °C 30.5in /  1032.8hPa Calm   3mph /  4.8km/h 97% 0in /  0.0mm 0 W/m2
00:18 30.2 °F /  -1 °C 29.5 °F /  -1.4 °C 30.5in /  1032.8hPa Calm   1mph /  1.6km/h 97% 0in /  0.0mm 0 W/m2
00:23 30.2 °F /  -1 °C 29.5 °F /  -1.4 °C 30.5in /  1032.8hPa Calm     97% 0in /  0.0mm 0 W/m2
00:28 30.2 °F /  -1 °C 29.5 °F /  -1.4 °C 30.5in /  1032.8hPa WNW 0.9mph /  1.4km/h 3mph /  4.8km/h 97% 0in /  0.0mm 0 W/m2
00:33 30.2 °F /  -1 °C 29.5 °F /  -1.4 °C 30.5in /  1032.8hPa WNW 0.9mph /  1.4km/h 2mph /  3.2km/h 97% 0in /  0.0mm 0 W/m2
00:38 30.2 °F /  -1 °C 29.5 °F /  -1.4 °C 30.5in /  1032.8hPa WNW 0.9mph /  1.4km/h 3mph /  4.8km/h 97% 0in /  0.0mm 0 W/m2
00:43 30 °F /  -1.1 °C 29.3 °F /  -1.5 °C 30.5in /  1032.8hPa WNW 0.9mph /  1.4km/h 3mph /  4.8km/h 97% 0in /  0.0mm 0 W/m2
00:48 30 °F /  -1.1 °C 29.3 °F /  -1.5 °C 30.5in /  1032.8hPa Calm   2mph /  3.2km/h 97% 0in /  0.0mm 0 W/m2
00:53 30 °F /  -1.1 °C 29.3 °F /  -1.5 °C 30.5in /  1032.8hPa West 0.9mph /  1.4km/h 4mph /  6.4km/h 97% 0in /  0.0mm 0 W/m2
00:58 30 °F /  -1.1 °C 29.3 °F /  -1.5 °C 30.5in /  1032.8hPa Calm   1mph /  1.6km/h 97% 0in /  0.0mm 0 W/m2
01:03 29.8 °F /  -1.2 °C 29.1 °F /  -1.6 °C 30.5in /  1032.8hPa Calm     97% 0in /  0.0mm 0 W/m2
01:08 29.8 °F /  -1.2 °C 29.1 °F /  -1.6 °C 30.5in /  1032.8hPa West 4mph /  6.4km/h 4mph /  6.4km/h 97% 0in /  0.0mm 0 W/m2
01:13 29.8 °F /  -1.2 °C 29.1 °F /  -1.6 °C 30.5in /  1032.8hPa WNW 0.9mph /  1.4km/h 3mph /  4.8km/h 97% 0in /  0.0mm 0 W/m2
01:18 29.8 °F /  -1.2 °C 29.1 °F /  -1.6 °C 30.5in /  1032.8hPa Calm   2mph /  3.2km/h 97% 0in /  0.0mm 0 W/m2
01:23 29.8 °F /  -1.2 °C 29.1 °F /  -1.6 °C 30.5in /  1032.8hPa Calm   1mph /  1.6km/h 97% 0in /  0.0mm 0 W/m2
01:28 29.8 °F /  -1.2 °C 29.1 °F /  -1.6 °C 30.5in /  1032.8hPa Calm   1mph /  1.6km/h 97% 0in /  0.0mm 0 W/m2
01:33 29.8 °F /  -1.2 °C 29.1 °F /  -1.6 °C 30.5in /  1032.8hPa Calm     97% 0in /  0.0mm 0 W/m2
01:38 29.8 °F /  -1.2 °C 29.1 °F /  -1.6 °C 30.5in /  1032.8hPa Calm   2mph /  3.2km/h 97% 0in /  0.0mm 0 W/m2
01:43 29.8 °F /  -1.2 °C 29.1 °F /  -1.6 °C 30.5in /  1032.8hPa Calm   2mph /  3.2km/h 97% 0in /  0.0mm 0 W/m2
01:48 29.8 °F /  -1.2 °C 29.1 °F /  -1.6 °C 30.5in /  1033.2hPa Calm   2mph /  3.2km/h 97% 0in /  0.0mm 0 W/m2
01:53 29.8 °F /  -1.2 °C 29.1 °F /  -1.6 °C 30.5in /  1032.8hPa NW 0.9mph /  1.4km/h 2mph /  3.2km/h 97% 0in /  0.0mm 0 W/m2
01:58 29.8 °F /  -1.2 °C 29.1 °F /  -1.6 °C 30.5in /  1032.8hPa WNW 2mph /  3.2km/h 3mph /  4.8km/h 97% 0in /  0.0mm 0 W/m2
02:03 30 °F /  -1.1 °C 29.3 °F /  -1.5 °C 30.5in /  1032.8hPa Calm   2mph /  3.2km/h 97% 0in /  0.0mm 0 W/m2
02:08 29.8 °F /  -1.2 °C 29.1 °F /  -1.6 °C 30.5in /  1032.8hPa West 2mph /  3.2km/h 3mph /  4.8km/h 97% 0in /  0.0mm 0 W/m2
02:13 29.8 °F /  -1.2 °C 29.1 °F /  -1.6 °C 30.5in /  1033.2hPa SW 0.9mph /  1.4km/h 3mph /  4.8km/h 97% 0in /  0.0mm 0 W/m2
02:18 29.8 °F /  -1.2 °C 29.1 °F /  -1.6 °C 30.5in /  1033.2hPa WNW 4.9mph /  7.9km/h 5mph /  8km/h 97% 0in /  0.0mm 0 W/m2
02:23 29.7 °F /  -1.3 °C 28.9 °F /  -1.7 °C 30.5in /  1033.2hPa WNW 2.9mph /  4.7km/h 5mph /  8km/h 97% 0in /  0.0mm 0 W/m2
02:28 29.7 °F /  -1.3 °C 28.9 °F /  -1.7 °C 30.5in /  1033.2hPa West 2.9mph /  4.7km/h 4mph /  6.4km/h 97% 0in /  0.0mm 0 W/m2
02:33 29.7 °F /  -1.3 °C 28.9 °F /  -1.7 °C 30.5in /  1033.2hPa West 0.9mph /  1.4km/h 5mph /  8km/h 97% 0in /  0.0mm 0 W/m2
02:38 29.7 °F /  -1.3 °C 28.9 °F /  -1.7 °C 30.5in /  1033.2hPa NW 0.9mph /  1.4km/h 3mph /  4.8km/h 97% 0in /  0.0mm 0 W/m2
02:43 29.8 °F /  -1.2 °C 29.1 °F /  -1.6 °C 30.5in /  1033.2hPa WNW 2mph /  3.2km/h 4mph /  6.4km/h 97% 0in /  0.0mm 0 W/m2
02:48 29.8 °F /  -1.2 °C 29.1 °F /  -1.6 °C 30.5in /  1033.2hPa WSW 2mph /  3.2km/h 6mph /  9.7km/h 97% 0in /  0.0mm 0 W/m2
02:54 29.7 °F /  -1.3 °C 28.9 °F /  -1.7 °C 30.5in /  1033.2hPa WNW 2.9mph /  4.7km/h 6mph /  9.7km/h 97% 0in /  0.0mm 0 W/m2
02:59 29.7 °F /  -1.3 °C 28.9 °F /  -1.7 °C 30.5in /  1033.2hPa NW 2mph /  3.2km/h 2mph /  3.2km/h 97% 0in /  0.0mm 0 W/m2
03:04 29.8 °F /  -1.2 °C 29.1 °F /  -1.6 °C 30.5in /  1033.2hPa West 2mph /  3.2km/h 3mph /  4.8km/h 97% 0in /  0.0mm 0 W/m2
03:09 29.7 °F /  -1.3 °C 28.9 °F /  -1.7 °C 30.5in /  1033.2hPa WSW 0.9mph /  1.4km/h 6mph /  9.7km/h 97% 0in /  0.0mm 0 W/m2
03:14 29.7 °F /  -1.3 °C 28.9 °F /  -1.7 °C 30.5in /  1032.8hPa West 0.9mph /  1.4km/h 3mph /  4.8km/h 97% 0in /  0.0mm 0 W/m2
03:19 29.7 °F /  -1.3 °C 28.9 °F /  -1.7 °C 30.5in /  1032.8hPa West 0.9mph /  1.4km/h 4mph /  6.4km/h 97% 0in /  0.0mm 0 W/m2
03:24 29.7 °F /  -1.3 °C 28.9 °F /  -1.7 °C 30.5in /  1032.8hPa Calm   3mph /  4.8km/h 97% 0in /  0.0mm 0 W/m2
03:29 29.7 °F /  -1.3 °C 28.9 °F /  -1.7 °C 30.5in /  1032.8hPa West 2mph /  3.2km/h 3mph /  4.8km/h 97% 0in /  0.0mm 0 W/m2
03:34 29.7 °F /  -1.3 °C 28.9 °F /  -1.7 °C 30.5in /  1032.8hPa Calm   2mph /  3.2km/h 97% 0in /  0.0mm 0 W/m2
03:39 29.7 °F /  -1.3 °C 28.9 °F /  -1.7 °C 30.5in /  1032.8hPa Calm   2mph /  3.2km/h 97% 0in /  0.0mm 0 W/m2
03:44 29.8 °F /  -1.2 °C 29.1 °F /  -1.6 °C 30.5in /  1032.8hPa West 0.9mph /  1.4km/h 1mph /  1.6km/h 97% 0in /  0.0mm 0 W/m2
03:49 29.8 °F /  -1.2 °C 29.1 °F /  -1.6 °C 30.5in /  1032.8hPa Calm   2mph /  3.2km/h 97% 0in /  0.0mm 0 W/m2
03:54 30 °F /  -1.1 °C 29.3 °F /  -1.5 °C 30.5in /  1032.8hPa West 0.9mph /  1.4km/h 3mph /  4.8km/h 97% 0in /  0.0mm 0 W/m2
03:59 30 °F /  -1.1 °C 29.3 °F /  -1.5 °C 30.5in /  1032.8hPa West 2mph /  3.2km/h 2mph /  3.2km/h 97% 0in /  0.0mm 0 W/m2
04:04 30.2 °F /  -1 °C 29.5 °F /  -1.4 °C 30.5in /  1032.8hPa Calm   3mph /  4.8km/h 97% 0in /  0.0mm 0 W/m2
04:09 30.4 °F /  -0.9 °C 29.7 °F /  -1.3 °C 30.5in /  1032.8hPa Calm   3mph /  4.8km/h 97% 0in /  0.0mm 0 W/m2
04:14 30.4 °F /  -0.9 °C 29.7 °F /  -1.3 °C 30.5in /  1032.8hPa West 2mph /  3.2km/h 3mph /  4.8km/h 97% 0in /  0.0mm 0 W/m2
04:19 30.4 °F /  -0.9 °C 29.7 °F /  -1.3 °C 30.5in /  1032.8hPa Calm     97% 0in /  0.0mm 0 W/m2
04:24 30.6 °F /  -0.8 °C 29.8 °F /  -1.2 °C 30.5in /  1032.5hPa Calm   3mph /  4.8km/h 97% 0in /  0.0mm 0 W/m2
04:29 30.6 °F /  -0.8 °C 29.8 °F /  -1.2 °C 30.5in /  1032.5hPa Calm     97% 0in /  0.0mm 0 W/m2
04:34 30.6 °F /  -0.8 °C 29.8 °F /  -1.2 °C 30.5in /  1032.8hPa NE 2mph /  3.2km/h 3mph /  4.8km/h 97% 0in /  0.0mm 0 W/m2
04:39 30.6 °F /  -0.8 °C 29.8 °F /  -1.2 °C 30.5in /  1032.8hPa NE 2mph /  3.2km/h 3mph /  4.8km/h 97% 0in /  0.0mm 0 W/m2
04:44 30.6 °F /  -0.8 °C 29.8 °F /  -1.2 °C 30.5in /  1032.8hPa NE 2.9mph /  4.7km/h 3mph /  4.8km/h 97% 0in /  0.0mm 0 W/m2
04:49 30.4 °F /  -0.9 °C 29.7 °F /  -1.3 °C 30.5in /  1032.8hPa Calm   1mph /  1.6km/h 97% 0in /  0.0mm 0 W/m2
04:54 30.4 °F /  -0.9 °C 29.7 °F /  -1.3 °C 30.5in /  1032.8hPa East 2mph /  3.2km/h 3mph /  4.8km/h 97% 0in /  0.0mm 0 W/m2
04:59 30.4 °F /  -0.9 °C 29.7 °F /  -1.3 °C 30.5in /  1032.8hPa East 0.9mph /  1.4km/h 2mph /  3.2km/h 97% 0in /  0.0mm 0 W/m2
05:04 30.4 °F /  -0.9 °C 29.7 °F /  -1.3 °C 30.5in /  1032.5hPa Calm   2mph /  3.2km/h 97% 0in /  0.0mm 0 W/m2
05:09 30.4 °F /  -0.9 °C 29.7 °F /  -1.3 °C 30.5in /  1032.8hPa Calm   1mph /  1.6km/h 97% 0in /  0.0mm 0 W/m2
05:14 30.4 °F /  -0.9 °C 29.7 °F /  -1.3 °C 30.5in /  1032.8hPa Calm   2mph /  3.2km/h 97% 0in /  0.0mm 0 W/m2
05:19 30.4 °F /  -0.9 °C 29.7 °F /  -1.3 °C 30.5in /  1032.8hPa Calm     97% 0in /  0.0mm 0 W/m2
05:24 30.4 °F /  -0.9 °C 29.7 °F /  -1.3 °C 30.5in /  1032.8hPa Calm     97% 0in /  0.0mm 0 W/m2
05:29 30.4 °F /  -0.9 °C 29.7 °F /  -1.3 °C 30.5in /  1032.8hPa Calm     97% 0in /  0.0mm 0 W/m2
05:34 30.4 °F /  -0.9 °C 29.7 °F /  -1.3 °C 30.5in /  1032.8hPa Calm   2mph /  3.2km/h 97% 0in /  0.0mm 0 W/m2
05:39 30.4 °F /  -0.9 °C 29.7 °F /  -1.3 °C 30.5in /  1032.8hPa East 0.9mph /  1.4km/h 2mph /  3.2km/h 97% 0in /  0.0mm 0 W/m2
05:44 30.4 °F /  -0.9 °C 29.7 °F /  -1.3 °C 30.5in /  1032.8hPa East 2mph /  3.2km/h 3mph /  4.8km/h 97% 0in /  0.0mm 0 W/m2
05:49 30.4 °F /  -0.9 °C 29.7 °F /  -1.3 °C 30.5in /  1032.8hPa East 0.9mph /  1.4km/h 2mph /  3.2km/h 97% 0in /  0.0mm 0 W/m2
05:54 30.4 °F /  -0.9 °C 29.7 °F /  -1.3 °C 30.5in /  1032.8hPa East 0.9mph /  1.4km/h 3mph /  4.8km/h 97% 0in /  0.0mm 0 W/m2
05:59 30.4 °F /  -0.9 °C 29.7 °F /  -1.3 °C 30.5in /  1032.8hPa East 0.9mph /  1.4km/h 2mph /  3.2km/h 97% 0in /  0.0mm 0 W/m2
06:04 30.6 °F /  -0.8 °C 29.8 °F /  -1.2 °C 30.5in /  1032.8hPa Calm   1mph /  1.6km/h 97% 0in /  0.0mm 0 W/m2
06:09 30.6 °F /  -0.8 °C 29.8 °F /  -1.2 °C 30.5in /  1032.8hPa Calm   2mph /  3.2km/h 97% 0in /  0.0mm 0 W/m2
06:14 30.6 °F /  -0.8 °C 29.8 °F /  -1.2 °C 30.5in /  1032.8hPa Calm   1mph /  1.6km/h 97% 0in /  0.0mm 0 W/m2
06:19 30.6 °F /  -0.8 °C 29.8 °F /  -1.2 °C 30.5in /  1032.8hPa East 0.9mph /  1.4km/h 2mph /  3.2km/h 97% 0in /  0.0mm 0 W/m2
06:24 30.6 °F /  -0.8 °C 29.8 °F /  -1.2 °C 30.5in /  1032.8hPa Calm   1mph /  1.6km/h 97% 0in /  0.0mm 0 W/m2
06:29 30.6 °F /  -0.8 °C 29.8 °F /  -1.2 °C 30.5in /  1032.5hPa East 0.9mph /  1.4km/h 2mph /  3.2km/h 97% 0in /  0.0mm 0 W/m2
06:34 30.6 °F /  -0.8 °C 29.8 °F /  -1.2 °C 30.5in /  1032.5hPa Calm     97% 0in /  0.0mm 0 W/m2
06:39 30.6 °F /  -0.8 °C 29.8 °F /  -1.2 °C 30.5in /  1032.5hPa Calm   2mph /  3.2km/h 97% 0in /  0.0mm 0 W/m2
06:44 30.7 °F /  -0.7 °C 30 °F /  -1.1 °C 30.5in /  1032.2hPa Calm   1mph /  1.6km/h 97% 0in /  0.0mm 0 W/m2
06:49 30.7 °F /  -0.7 °C 30 °F /  -1.1 °C 30.5in /  1032.5hPa SSE 0.9mph /  1.4km/h 3mph /  4.8km/h 97% 0in /  0.0mm 0 W/m2
06:54 30.7 °F /  -0.7 °C 30 °F /  -1.1 °C 30.5in /  1032.5hPa WNW 0.9mph /  1.4km/h 3mph /  4.8km/h 97% 0in /  0.0mm 0 W/m2
06:59 30.9 °F /  -0.6 °C 30.2 °F /  -1 °C 30.5in /  1032.8hPa West 2mph /  3.2km/h 3mph /  4.8km/h 97% 0in /  0.0mm 0 W/m2
07:04 30.9 °F /  -0.6 °C 30.2 °F /  -1 °C 30.5in /  1032.5hPa West 0.9mph /  1.4km/h 3mph /  4.8km/h 97% 0in /  0.0mm 0 W/m2
07:09 30.9 °F /  -0.6 °C 30.2 °F /  -1 °C 30.5in /  1032.8hPa NW 2.9mph /  4.7km/h 6mph /  9.7km/h 97% 0in /  0.0mm 0 W/m2
07:14 30.7 °F /  -0.7 °C 30 °F /  -1.1 °C 30.5in /  1032.8hPa WSW 2.9mph /  4.7km/h 6mph /  9.7km/h 97% 0in /  0.0mm 0 W/m2
07:19 30.7 °F /  -0.7 °C 30 °F /  -1.1 °C 30.5in /  1032.8hPa WNW 0.9mph /  1.4km/h 2mph /  3.2km/h 97% 0in /  0.0mm 0 W/m2
07:24 30.7 °F /  -0.7 °C 30 °F /  -1.1 °C 30.5in /  1032.5hPa WNW 2mph /  3.2km/h 4mph /  6.4km/h 97% 0in /  0.0mm 0 W/m2
07:29 30.7 °F /  -0.7 °C 30 °F /  -1.1 °C 30.5in /  1032.8hPa NW 4mph /  6.4km/h 6mph /  9.7km/h 97% 0in /  0.0mm 0 W/m2
07:34 30.7 °F /  -0.7 °C 30 °F /  -1.1 °C 30.5in /  1032.8hPa West 2mph /  3.2km/h 4mph /  6.4km/h 97% 0in /  0.0mm 0 W/m2
07:39 30.7 °F /  -0.7 °C 30 °F /  -1.1 °C 30.5in /  1032.5hPa West 2mph /  3.2km/h 3mph /  4.8km/h 97% 0in /  0.0mm 0 W/m2
07:44 30.7 °F /  -0.7 °C 30 °F /  -1.1 °C 30.5in /  1032.8hPa WNW 2mph /  3.2km/h 4mph /  6.4km/h 97% 0in /  0.0mm 0 W/m2
07:49 30.7 °F /  -0.7 °C 30 °F /  -1.1 °C 30.5in /  1033.2hPa West 2mph /  3.2km/h 7mph /  11.3km/h 97% 0in /  0.0mm 0 W/m2
07:54 30.7 °F /  -0.7 °C 30 °F /  -1.1 °C 30.5in /  1033.2hPa WNW 2mph /  3.2km/h 5mph /  8km/h 97% 0in /  0.0mm 0 W/m2
07:59 30.7 °F /  -0.7 °C 30 °F /  -1.1 °C 30.5in /  1033.2hPa West 2mph /  3.2km/h 6mph /  9.7km/h 97% 0in /  0.0mm 0 W/m2
08:04 30.7 °F /  -0.7 °C 30 °F /  -1.1 °C 30.5in /  1033.5hPa WNW 0.9mph /  1.4km/h 4mph /  6.4km/h 97% 0in /  0.0mm 0 W/m2
08:09 30.7 °F /  -0.7 °C 30 °F /  -1.1 °C 30.5in /  1033.2hPa WNW 2mph /  3.2km/h 5mph /  8km/h 97% 0in /  0.0mm 0 W/m2
08:14 30.7 °F /  -0.7 °C 30 °F /  -1.1 °C 30.5in /  1033.5hPa NW 4mph /  6.4km/h 6mph /  9.7km/h 97% 0in /  0.0mm 0 W/m2
08:19 30.7 °F /  -0.7 °C 30 °F /  -1.1 °C 30.5in /  1033.5hPa WSW 2.9mph /  4.7km/h 6mph /  9.7km/h 97% 0in /  0.0mm 0 W/m2
08:24 30.6 °F /  -0.8 °C 29.8 °F /  -1.2 °C 30.5in /  1033.5hPa WNW 4mph /  6.4km/h 4mph /  6.4km/h 97% 0in /  0.0mm 0 W/m2
08:29 30.6 °F /  -0.8 °C 29.8 °F /  -1.2 °C 30.5in /  1033.5hPa WSW 4mph /  6.4km/h 6mph /  9.7km/h 97% 0in /  0.0mm 0 W/m2
08:34 30.6 °F /  -0.8 °C 29.8 °F /  -1.2 °C 30.5in /  1033.5hPa WSW 2.9mph /  4.7km/h 6mph /  9.7km/h 97% 0in /  0.0mm 0 W/m2
08:39 30.6 °F /  -0.8 °C 29.8 °F /  -1.2 °C 30.5in /  1033.5hPa West 0.9mph /  1.4km/h 6mph /  9.7km/h 97% 0in /  0.0mm 0 W/m2
08:44 30.6 °F /  -0.8 °C 29.8 °F /  -1.2 °C 30.5in /  1033.5hPa West 2.9mph /  4.7km/h 6mph /  9.7km/h 97% 0in /  0.0mm 5 W/m2
08:49 30.6 °F /  -0.8 °C 29.8 °F /  -1.2 °C 30.5in /  1033.5hPa West 4mph /  6.4km/h 8mph /  12.9km/h 97% 0in /  0.0mm 5 W/m2
08:54 30.6 °F /  -0.8 °C 29.8 °F /  -1.2 °C 30.5in /  1033.5hPa West 2.9mph /  4.7km/h 7mph /  11.3km/h 97% 0in /  0.0mm 7 W/m2
08:59 30.6 °F /  -0.8 °C 29.8 °F /  -1.2 °C 30.5in /  1033.9hPa WSW 2.9mph /  4.7km/h 6mph /  9.7km/h 97% 0in /  0.0mm 7 W/m2
09:04 30.7 °F /  -0.7 °C 29.7 °F /  -1.3 °C 30.5in /  1033.9hPa NW 4.9mph /  7.9km/h 6mph /  9.7km/h 96% 0in /  0.0mm 9 W/m2
09:09 30.7 °F /  -0.7 °C 29.7 °F /  -1.3 °C 30.5in /  1033.5hPa NW 4.9mph /  7.9km/h 5mph /  8km/h 96% 0in /  0.0mm 11 W/m2
09:14 30.7 °F /  -0.7 °C 29.7 °F /  -1.3 °C 30.5in /  1033.5hPa WSW 0.9mph /  1.4km/h 4mph /  6.4km/h 96% 0in /  0.0mm 9 W/m2
09:19 30.7 °F /  -0.7 °C 29.7 °F /  -1.3 °C 30.5in /  1033.5hPa West 0.9mph /  1.4km/h 2mph /  3.2km/h 96% 0in /  0.0mm 11 W/m2
09:24 30.7 °F /  -0.7 °C 29.7 °F /  -1.3 °C 30.5in /  1032.8hPa West 0.9mph /  1.4km/h 2mph /  3.2km/h 96% 0in /  0.0mm 18 W/m2
09:29 30.7 °F /  -0.7 °C 30 °F /  -1.1 °C 30.5in /  1033.2hPa NW 2.9mph /  4.7km/h 3mph /  4.8km/h 97% 0in /  0.0mm 18 W/m2
09:34 30.7 °F /  -0.7 °C 30 °F /  -1.1 °C 30.5in /  1033.5hPa WNW 0.9mph /  1.4km/h 2mph /  3.2km/h 97% 0in /  0.0mm 18 W/m2
09:39 30.7 °F /  -0.7 °C 30 °F /  -1.1 °C 30.5in /  1033.5hPa Calm   2mph /  3.2km/h 97% 0in /  0.0mm 21 W/m2
09:44 30.7 °F /  -0.7 °C 29.7 °F /  -1.3 °C 30.5in /  1033.9hPa West 0.9mph /  1.4km/h 4mph /  6.4km/h 96% 0in /  0.0mm 19 W/m2
09:49 30.6 °F /  -0.8 °C 29.5 °F /  -1.4 °C 30.5in /  1033.2hPa West 2mph /  3.2km/h 4mph /  6.4km/h 96% 0in /  0.0mm 21 W/m2
09:54 30.6 °F /  -0.8 °C 29.5 °F /  -1.4 °C 30.5in /  1033.5hPa WNW 2mph /  3.2km/h 3mph /  4.8km/h 96% 0in /  0.0mm 23 W/m2
09:59 30.6 °F /  -0.8 °C 29.5 °F /  -1.4 °C 30.5in /  1033.2hPa NNW 2mph /  3.2km/h 4mph /  6.4km/h 96% 0in /  0.0mm 25 W/m2
10:04 30.6 °F /  -0.8 °C 29.5 °F /  -1.4 °C 30.5in /  1033.5hPa WNW 2.9mph /  4.7km/h 5mph /  8km/h 96% 0in /  0.0mm 25 W/m2
10:09 30.6 °F /  -0.8 °C 29.5 °F /  -1.4 °C 30.5in /  1033.5hPa West 2mph /  3.2km/h 6mph /  9.7km/h 96% 0in /  0.0mm 23 W/m2
10:14 30.6 °F /  -0.8 °C 29.5 °F /  -1.4 °C 30.5in /  1033.5hPa WNW 0.9mph /  1.4km/h 3mph /  4.8km/h 96% 0in /  0.0mm 25 W/m2
10:19 30.6 °F /  -0.8 °C 29.5 °F /  -1.4 °C 30.5in /  1033.5hPa West 2.9mph /  4.7km/h 5mph /  8km/h 96% 0in /  0.0mm 25 W/m2
10:24 30.6 °F /  -0.8 °C 29.5 °F /  -1.4 °C 30.5in /  1033.5hPa West 0.9mph /  1.4km/h 4mph /  6.4km/h 96% 0in /  0.0mm 26 W/m2
10:29 30.6 °F /  -0.8 °C 29.5 °F /  -1.4 °C 30.5in /  1033.5hPa WSW 4mph /  6.4km/h 5mph /  8km/h 96% 0in /  0.0mm 28 W/m2
10:34 30.6 °F /  -0.8 °C 29.5 °F /  -1.4 °C 30.5in /  1033.9hPa West 6mph /  9.7km/h 6mph /  9.7km/h 96% 0in /  0.0mm 30 W/m2
10:39 30.6 °F /  -0.8 °C 29.5 °F /  -1.4 °C 30.5in /  1033.9hPa WNW 2mph /  3.2km/h 3mph /  4.8km/h 96% 0in /  0.0mm 28 W/m2
10:44 30.6 °F /  -0.8 °C 29.5 °F /  -1.4 °C 30.5in /  1033.9hPa WSW 2.9mph /  4.7km/h 6mph /  9.7km/h 96% 0in /  0.0mm 32 W/m2
10:49 30.4 °F /  -0.9 °C 29.3 °F /  -1.5 °C 30.5in /  1034.2hPa NW 2.9mph /  4.7km/h 6mph /  9.7km/h 96% 0in /  0.0mm 28 W/m2
10:54 30.6 °F /  -0.8 °C 29.5 °F /  -1.4 °C 30.5in /  1034.2hPa WNW 2.9mph /  4.7km/h 5mph /  8km/h 96% 0in /  0.0mm 33 W/m2
11:00 30.6 °F /  -0.8 °C 29.5 °F /  -1.4 °C 30.5in /  1033.9hPa WSW 4.9mph /  7.9km/h 8mph /  12.9km/h 96% 0in /  0.0mm 32 W/m2
11:05 30.6 °F /  -0.8 °C 29.5 °F /  -1.4 °C 30.5in /  1033.9hPa West 2.9mph /  4.7km/h 8mph /  12.9km/h 96% 0in /  0.0mm 33 W/m2
11:10 30.4 °F /  -0.9 °C 29.3 °F /  -1.5 °C 30.5in /  1033.9hPa West 4mph /  6.4km/h 8mph /  12.9km/h 96% 0in /  0.0mm 37 W/m2
11:15 30.6 °F /  -0.8 °C 29.5 °F /  -1.4 °C 30.5in /  1033.9hPa WNW 6.9mph /  11.1km/h 8mph /  12.9km/h 96% 0in /  0.0mm 35 W/m2
11:20 30.6 °F /  -0.8 °C 29.3 °F /  -1.5 °C 30.5in /  1033.9hPa WNW 0.9mph /  1.4km/h 9mph /  14.5km/h 95% 0in /  0.0mm 44 W/m2
11:25 30.6 °F /  -0.8 °C 29.3 °F /  -1.5 °C 30.5in /  1034.2hPa WNW 4.9mph /  7.9km/h 7mph /  11.3km/h 95% 0in /  0.0mm 42 W/m2
11:30 30.6 °F /  -0.8 °C 29.3 °F /  -1.5 °C 30.5in /  1034.2hPa WSW 2mph /  3.2km/h 5mph /  8km/h 95% 0in /  0.0mm 35 W/m2
11:35 30.7 °F /  -0.7 °C 29.5 °F /  -1.4 °C 30.5in /  1034.2hPa WSW 4mph /  6.4km/h 7mph /  11.3km/h 95% 0in /  0.0mm 33 W/m2
11:40 30.7 °F /  -0.7 °C 29.5 °F /  -1.4 °C 30.5in /  1034.2hPa NW 2.9mph /  4.7km/h 7mph /  11.3km/h 95% 0in /  0.0mm 32 W/m2
11:45 30.7 °F /  -0.7 °C 29.5 °F /  -1.4 °C 30.5in /  1033.9hPa WSW 2.9mph /  4.7km/h 6mph /  9.7km/h 95% 0in /  0.0mm 35 W/m2
11:50 30.7 °F /  -0.7 °C 29.5 °F /  -1.4 °C 30.5in /  1033.9hPa West 2mph /  3.2km/h 6mph /  9.7km/h 95% 0in /  0.0mm 47 W/m2
11:55 30.7 °F /  -0.7 °C 29.5 °F /  -1.4 °C 30.5in /  1033.9hPa WNW 2.9mph /  4.7km/h 4mph /  6.4km/h 95% 0in /  0.0mm 47 W/m2
12:00 30.7 °F /  -0.7 °C 29.5 °F /  -1.4 °C 30.5in /  1033.9hPa WSW 2.9mph /  4.7km/h 8mph /  12.9km/h 95% 0in /  0.0mm 54 W/m2
12:05 30.7 °F /  -0.7 °C 29.5 °F /  -1.4 °C 30.5in /  1033.9hPa NW 4.9mph /  7.9km/h 7mph /  11.3km/h 95% 0in /  0.0mm 51 W/m2
12:10 30.9 °F /  -0.6 °C 29.7 °F /  -1.3 °C 30.5in /  1033.9hPa West 4mph /  6.4km/h 6mph /  9.7km/h 95% 0in /  0.0mm 46 W/m2
12:15 31.1 °F /  -0.5 °C 29.8 °F /  -1.2 °C 30.5in /  1033.9hPa WNW 4.9mph /  7.9km/h 6mph /  9.7km/h 95% 0in /  0.0mm 53 W/m2
12:20 31.1 °F /  -0.5 °C 29.8 °F /  -1.2 °C 30.5in /  1033.9hPa West 4mph /  6.4km/h 6mph /  9.7km/h 95% 0in /  0.0mm 54 W/m2
12:25 31.3 °F /  -0.4 °C 30 °F /  -1.1 °C 30.5in /  1033.9hPa WNW 2mph /  3.2km/h 8mph /  12.9km/h 95% 0in /  0.0mm 54 W/m2
12:30 31.3 °F /  -0.4 °C 30 °F /  -1.1 °C 30.5in /  1033.9hPa WNW 2mph /  3.2km/h 5mph /  8km/h 95% 0in /  0.0mm 54 W/m2
12:35 31.3 °F /  -0.4 °C 30 °F /  -1.1 °C 30.5in /  1033.9hPa West 6mph /  9.7km/h 7mph /  11.3km/h 95% 0in /  0.0mm 54 W/m2
12:40 31.5 °F /  -0.3 °C 30.2 °F /  -1 °C 30.5in /  1033.9hPa West 6mph /  9.7km/h 8mph /  12.9km/h 95% 0in /  0.0mm 58 W/m2
12:45 31.5 °F /  -0.3 °C 30 °F /  -1.1 °C 30.5in /  1033.9hPa WSW 4.9mph /  7.9km/h 7mph /  11.3km/h 94% 0in /  0.0mm 62 W/m2
12:50 31.6 °F /  -0.2 °C 30.2 °F /  -1 °C 30.5in /  1033.5hPa West 4mph /  6.4km/h 8mph /  12.9km/h 94% 0in /  0.0mm 63 W/m2
12:55 31.6 °F /  -0.2 °C 30.2 °F /  -1 °C 30.5in /  1033.5hPa West 2.9mph /  4.7km/h 3mph /  4.8km/h 94% 0in /  0.0mm 65 W/m2
13:00 31.8 °F /  -0.1 °C 30.4 °F /  -0.9 °C 30.5in /  1033.5hPa West 2.9mph /  4.7km/h 6mph /  9.7km/h 94% 0in /  0.0mm 56 W/m2
13:05 31.8 °F /  -0.1 °C 30.4 °F /  -0.9 °C 30.5in /  1033.5hPa West 2.9mph /  4.7km/h 6mph /  9.7km/h 94% 0in /  0.0mm 60 W/m2
13:10 31.8 °F /  -0.1 °C 30.4 °F /  -0.9 °C 30.5in /  1033.5hPa SW 6mph /  9.7km/h 8mph /  12.9km/h 94% 0in /  0.0mm 53 W/m2
13:15 31.8 °F /  -0.1 °C 30.4 °F /  -0.9 °C 30.5in /  1033.5hPa WSW 4mph /  6.4km/h 4mph /  6.4km/h 94% 0in /  0.0mm 51 W/m2
13:20 32 °F /  0 °C 30.6 °F /  -0.8 °C 30.5in /  1033.5hPa WNW 2.9mph /  4.7km/h 8mph /  12.9km/h 94% 0in /  0.0mm 51 W/m2
13:25 32 °F /  0 °C 30.6 °F /  -0.8 °C 30.5in /  1033.5hPa NW 4mph /  6.4km/h 4mph /  6.4km/h 94% 0in /  0.0mm 44 W/m2
13:30 32 °F /  0 °C 30.6 °F /  -0.8 °C 30.5in /  1033.5hPa West 2.9mph /  4.7km/h 7mph /  11.3km/h 94% 0in /  0.0mm 47 W/m2
13:35 32 °F /  0 °C 30.6 °F /  -0.8 °C 30.5in /  1033.2hPa WNW 2.9mph /  4.7km/h 3mph /  4.8km/h 94% 0in /  0.0mm 46 W/m2
13:40 32 °F /  0 °C 30.6 °F /  -0.8 °C 30.5in /  1033.5hPa West 4mph /  6.4km/h 5mph /  8km/h 94% 0in /  0.0mm 47 W/m2
13:45 32.2 °F /  0.1 °C 30.6 °F /  -0.8 °C 30.5in /  1033.5hPa NW 2mph /  3.2km/h 4mph /  6.4km/h 94% 0in /  0.0mm 46 W/m2
13:50 32.2 °F /  0.1 °C 30.6 °F /  -0.8 °C 30.5in /  1033.5hPa West 2mph /  3.2km/h 6mph /  9.7km/h 94% 0in /  0.0mm 44 W/m2
13:55 32.2 °F /  0.1 °C 30.6 °F /  -0.8 °C 30.5in /  1033.5hPa West 2.9mph /  4.7km/h 6mph /  9.7km/h 94% 0in /  0.0mm 40 W/m2
14:00 32.2 °F /  0.1 °C 30.6 °F /  -0.8 °C 30.5in /  1033.5hPa WNW 2.9mph /  4.7km/h 4mph /  6.4km/h 94% 0in /  0.0mm 42 W/m2
14:05 32.2 °F /  0.1 °C 30.6 °F /  -0.8 °C 30.5in /  1033.5hPa WNW 2mph /  3.2km/h 4mph /  6.4km/h 94% 0in /  0.0mm 42 W/m2
14:10 32.2 °F /  0.1 °C 30.6 °F /  -0.8 °C 30.5in /  1033.5hPa NW 2.9mph /  4.7km/h 4mph /  6.4km/h 94% 0in /  0.0mm 40 W/m2
14:15 32.4 °F /  0.2 °C 30.7 °F /  -0.7 °C 30.5in /  1033.5hPa West 2.9mph /  4.7km/h 6mph /  9.7km/h 94% 0in /  0.0mm 37 W/m2
14:20 32.4 °F /  0.2 °C 30.6 °F /  -0.8 °C 30.5in /  1033.5hPa West 6mph /  9.7km/h 7mph /  11.3km/h 93% 0in /  0.0mm 35 W/m2
14:25 32.4 °F /  0.2 °C 30.6 °F /  -0.8 °C 30.5in /  1033.5hPa West 2mph /  3.2km/h 3mph /  4.8km/h 93% 0in /  0.0mm 28 W/m2
14:30 32.4 °F /  0.2 °C 30.7 °F /  -0.7 °C 30.5in /  1033.5hPa West 2.9mph /  4.7km/h 5mph /  8km/h 94% 0in /  0.0mm 26 W/m2
14:35 32.4 °F /  0.2 °C 30.6 °F /  -0.8 °C 30.5in /  1033.5hPa WSW 4mph /  6.4km/h 4mph /  6.4km/h 93% 0in /  0.0mm 26 W/m2
14:40 32.4 °F /  0.2 °C 30.6 °F /  -0.8 °C 30.5in /  1033.5hPa WNW 4mph /  6.4km/h 7mph /  11.3km/h 93% 0in /  0.0mm 28 W/m2
14:45 32.4 °F /  0.2 °C 30.6 °F /  -0.8 °C 30.5in /  1033.5hPa West 2mph /  3.2km/h 6mph /  9.7km/h 93% 0in /  0.0mm 28 W/m2
14:50 32.4 °F /  0.2 °C 30.7 °F /  -0.7 °C 30.5in /  1033.5hPa West 2.9mph /  4.7km/h 4mph /  6.4km/h 94% 0in /  0.0mm 30 W/m2
14:55 32.5 °F /  0.3 °C 30.9 °F /  -0.6 °C 30.5in /  1033.5hPa WNW 2.9mph /  4.7km/h 4mph /  6.4km/h 94% 0in /  0.0mm 30 W/m2
15:00 32.5 °F /  0.3 °C 30.9 °F /  -0.6 °C 30.5in /  1033.5hPa West 0.9mph /  1.4km/h 3mph /  4.8km/h 94% 0in /  0.0mm 28 W/m2
15:05 32.5 °F /  0.3 °C 30.9 °F /  -0.6 °C 30.5in /  1033.5hPa West 2.9mph /  4.7km/h 3mph /  4.8km/h 94% 0in /  0.0mm 26 W/m2
15:10 32.5 °F /  0.3 °C 30.9 °F /  -0.6 °C 30.5in /  1033.5hPa WNW 2mph /  3.2km/h 3mph /  4.8km/h 94% 0in /  0.0mm 25 W/m2
15:15 32.5 °F /  0.3 °C 30.9 °F /  -0.6 °C 30.5in /  1033.5hPa WNW 2.9mph /  4.7km/h 4mph /  6.4km/h 94% 0in /  0.0mm 26 W/m2
15:20 32.5 °F /  0.3 °C 30.9 °F /  -0.6 °C 30.5in /  1033.5hPa West 2mph /  3.2km/h 4mph /  6.4km/h 94% 0in /  0.0mm 25 W/m2
15:25 32.5 °F /  0.3 °C 30.9 °F /  -0.6 °C 30.5in /  1033.5hPa WSW 2mph /  3.2km/h 4mph /  6.4km/h 94% 0in /  0.0mm 21 W/m2
15:30 32.5 °F /  0.3 °C 30.9 °F /  -0.6 °C 30.5in /  1033.2hPa West 2mph /  3.2km/h 4mph /  6.4km/h 94% 0in /  0.0mm 21 W/m2
15:35 32.5 °F /  0.3 °C 30.9 °F /  -0.6 °C 30.5in /  1033.2hPa Calm   1mph /  1.6km/h 94% 0in /  0.0mm 19 W/m2
15:40 32.5 °F /  0.3 °C 30.7 °F /  -0.7 °C 30.5in /  1033.2hPa WNW 0.9mph /  1.4km/h 2mph /  3.2km/h 93% 0in /  0.0mm 19 W/m2
15:45 32.7 °F /  0.4 °C 30.9 °F /  -0.6 °C 30.5in /  1033.2hPa WNW 2mph /  3.2km/h 4mph /  6.4km/h 93% 0in /  0.0mm 19 W/m2
15:50 32.7 °F /  0.4 °C 30.9 °F /  -0.6 °C 30.5in /  1033.2hPa WNW 2mph /  3.2km/h 3mph /  4.8km/h 93% 0in /  0.0mm 16 W/m2
15:55 32.7 °F /  0.4 °C 30.9 °F /  -0.6 °C 30.5in /  1033.2hPa WNW 2mph /  3.2km/h 4mph /  6.4km/h 93% 0in /  0.0mm 18 W/m2
16:00 32.7 °F /  0.4 °C 30.9 °F /  -0.6 °C 30.5in /  1033.2hPa West 2mph /  3.2km/h 2mph /  3.2km/h 93% 0in /  0.0mm 16 W/m2
16:05 32.5 °F /  0.3 °C 30.7 °F /  -0.7 °C 30.5in /  1033.2hPa West 2.9mph /  4.7km/h 3mph /  4.8km/h 93% 0in /  0.0mm 16 W/m2
16:10 32.5 °F /  0.3 °C 30.7 °F /  -0.7 °C 30.5in /  1033.2hPa West 2.9mph /  4.7km/h 4mph /  6.4km/h 93% 0in /  0.0mm 16 W/m2
16:15 32.5 °F /  0.3 °C 30.9 °F /  -0.6 °C 30.5in /  1033.2hPa WNW 2.9mph /  4.7km/h 4mph /  6.4km/h 94% 0in /  0.0mm 12 W/m2
Juneau County Weather
Compliments of Weather Underground - 2 mb